Time;durP1;ratioP1;P1;durP2;ratioP2;P2;SDS_P1;SDS_P2;PMS_P1;PMS_P2;Temp;Humidity;BMP_temperature;BMP_pressure;BME280_temperature;BME280_humidity;BME280_pressure;Samples;Min_cycle;Max_cycle;Signal;HPM_P1;HPM_P2
2023/12/10 00:00:09;;;;;;;7.38;2.78;;;;;;;;;;5059225;28;20622;-71
2023/12/10 00:02:35;;;;;;;8.00;3.33;;;;;;;;;;5059241;28;20024;-71
2023/12/10 00:05:02;;;;;;;19.83;4.25;;;;;;;;;;5077888;28;20090;-71
2023/12/10 00:07:28;;;;;;;13.38;3.38;;;;;;;;;;5062670;28;20025;-70
2023/12/10 00:09:54;;;;;;;10.25;4.28;;;;;;;;;;5061663;28;20429;-71
2023/12/10 00:12:20;;;;;;;8.32;3.05;;;;;;;;;;5071085;28;20036;-71
2023/12/10 00:14:52;;;;;;;8.00;3.53;;;;;;;;;;5059727;28;20495;-71
2023/12/10 00:17:18;;;;;;;15.43;3.42;;;;;;;;;;5059839;28;20468;-71
2023/12/10 00:19:45;;;;;;;7.82;2.83;;;;;;;;;;5059609;28;20032;-71
2023/12/10 00:22:11;;;;;;;6.38;3.40;;;;;;;;;;5060540;28;20059;-71
2023/12/10 00:24:37;;;;;;;14.48;3.38;;;;;;;;;;5061658;28;20020;-71
2023/12/10 00:27:03;;;;;;;9.23;2.50;;;;;;;;;;5076589;28;20029;-71
2023/12/10 00:29:29;;;;;;;6.95;3.08;;;;;;;;;;5062908;28;20063;-71
2023/12/10 00:31:56;;;;;;;10.40;3.35;;;;;;;;;;5057787;28;20131;-71
2023/12/10 00:34:22;;;;;;;8.50;2.67;;;;;;;;;;5063433;28;20778;-71
2023/12/10 00:36:48;;;;;;;4.55;2.80;;;;;;;;;;5062401;28;20035;-72
2023/12/10 00:39:15;;;;;;;14.48;3.00;;;;;;;;;;5058212;28;20054;-71
2023/12/10 00:41:41;;;;;;;13.85;2.90;;;;;;;;;;5092852;28;20085;-71
2023/12/10 00:44:07;;;;;;;6.13;2.58;;;;;;;;;;5079142;28;20108;-70
2023/12/10 00:46:33;;;;;;;8.32;2.80;;;;;;;;;;5065629;28;20056;-70
2023/12/10 00:48:59;;;;;;;11.35;3.60;;;;;;;;;;5056938;28;20124;-70
2023/12/10 00:51:25;;;;;;;4.38;2.55;;;;;;;;;;5049112;28;20028;-71
2023/12/10 00:53:52;;;;;;;11.65;2.90;;;;;;;;;;5056521;28;20025;-71
2023/12/10 00:56:18;;;;;;;6.53;4.00;;;;;;;;;;5060916;28;20059;-70
2023/12/10 00:58:44;;;;;;;13.75;3.75;;;;;;;;;;5063451;28;20558;-70
2023/12/10 01:01:11;;;;;;;9.95;2.80;;;;;;;;;;5059418;28;20489;-71
2023/12/10 01:03:38;;;;;;;5.97;2.38;;;;;;;;;;5054041;28;20420;-71
2023/12/10 01:06:04;;;;;;;7.72;3.08;;;;;;;;;;5066051;28;20127;-71
2023/12/10 01:08:31;;;;;;;3.33;2.35;;;;;;;;;;5059331;28;20394;-71
2023/12/10 01:10:57;;;;;;;4.70;2.60;;;;;;;;;;5057263;28;20031;-71
2023/12/10 01:13:24;;;;;;;6.78;2.45;;;;;;;;;;5064325;28;20028;-70
2023/12/10 01:15:51;;;;;;;9.77;3.28;;;;;;;;;;5061523;28;20032;-71
2023/12/10 01:18:17;;;;;;;5.68;2.85;;;;;;;;;;5059984;28;20079;-71
2023/12/10 01:20:43;;;;;;;6.03;2.60;;;;;;;;;;5069735;28;20040;-71
2023/12/10 01:23:09;;;;;;;7.07;2.40;;;;;;;;;;5057508;28;20024;-71
2023/12/10 01:25:36;;;;;;;8.27;3.45;;;;;;;;;;5062610;28;20031;-71
2023/12/10 01:28:02;;;;;;;9.65;3.40;;;;;;;;;;5058206;28;20507;-71
2023/12/10 01:30:29;;;;;;;5.82;2.20;;;;;;;;;;5064309;28;20335;-71
2023/12/10 01:32:58;;;;;;;9.93;2.63;;;;;;;;;;5057386;28;20033;-71
2023/12/10 01:35:25;;;;;;;4.75;2.05;;;;;;;;;;5061114;28;20028;-71
2023/12/10 01:37:51;;;;;;;5.93;2.42;;;;;;;;;;5060737;28;20028;-71
2023/12/10 01:40:19;;;;;;;7.78;2.65;;;;;;;;;;5056248;28;20036;-70
2023/12/10 01:42:45;;;;;;;5.90;2.50;;;;;;;;;;5065512;28;20027;-71
2023/12/10 01:45:11;;;;;;;7.47;2.33;;;;;;;;;;5062661;28;20048;-71
2023/12/10 01:47:44;;;;;;;6.22;2.80;;;;;;;;;;5067269;28;20031;-70
2023/12/10 01:50:13;;;;;;;6.93;2.47;;;;;;;;;;5064307;28;20462;-71
2023/12/10 01:52:43;;;;;;;4.55;2.78;;;;;;;;;;5065274;28;20030;-71
2023/12/10 01:55:10;;;;;;;4.75;2.10;;;;;;;;;;5063561;28;20451;-70
2023/12/10 01:57:37;;;;;;;5.65;2.50;;;;;;;;;;5076308;28;20391;-71
2023/12/10 02:00:07;;;;;;;8.40;2.70;;;;;;;;;;5060692;28;20025;-71
2023/12/10 02:02:36;;;;;;;2.42;1.95;;;;;;;;;;5065056;28;20030;-71
2023/12/10 02:05:04;;;;;;;10.93;2.85;;;;;;;;;;5061879;28;20029;-71
2023/12/10 02:07:31;;;;;;;4.25;2.22;;;;;;;;;;5067783;28;20076;-71
2023/12/10 02:09:57;;;;;;;6.13;2.00;;;;;;;;;;5063995;28;20111;-70
2023/12/10 02:12:23;;;;;;;6.13;2.03;;;;;;;;;;5061496;28;20050;-70
2023/12/10 02:14:50;;;;;;;7.80;2.58;;;;;;;;;;5064749;28;20059;-70
2023/12/10 02:17:16;;;;;;;6.00;2.35;;;;;;;;;;5061104;28;20150;-70
2023/12/10 02:19:42;;;;;;;3.72;2.38;;;;;;;;;;5060869;28;20651;-71
2023/12/10 02:22:14;;;;;;;9.35;3.10;;;;;;;;;;5063862;28;20632;-71
2023/12/10 02:24:45;;;;;;;4.68;2.38;;;;;;;;;;5059158;28;20024;-71
2023/12/10 02:27:11;;;;;;;7.38;3.17;;;;;;;;;;5060246;28;20028;-71
2023/12/10 02:29:37;;;;;;;6.88;2.55;;;;;;;;;;5060413;28;21355;-71
2023/12/10 02:32:04;;;;;;;3.17;1.80;;;;;;;;;;5063606;28;20074;-70
2023/12/10 02:34:30;;;;;;;6.20;2.28;;;;;;;;;;5075100;28;20036;-71
2023/12/10 02:36:56;;;;;;;6.72;2.20;;;;;;;;;;5064757;28;20118;-71
2023/12/10 02:39:22;;;;;;;5.88;2.67;;;;;;;;;;5065620;28;20117;-71
2023/12/10 02:41:49;;;;;;;6.95;2.17;;;;;;;;;;5056236;28;20548;-72
2023/12/10 02:44:15;;;;;;;3.95;2.33;;;;;;;;;;5056245;28;20048;-71
2023/12/10 02:46:50;;;;;;;5.35;2.22;;;;;;;;;;5056830;28;20033;-70
2023/12/10 02:49:17;;;;;;;4.95;2.05;;;;;;;;;;5067254;28;20386;-69
2023/12/10 02:51:43;;;;;;;7.78;2.33;;;;;;;;;;5061573;28;20024;-71
2023/12/10 02:54:09;;;;;;;8.43;2.30;;;;;;;;;;5059246;28;20083;-70
2023/12/10 02:56:35;;;;;;;2.42;1.80;;;;;;;;;;5067032;28;20028;-70
2023/12/10 02:59:01;;;;;;;4.40;2.30;;;;;;;;;;5056689;28;20566;-70
2023/12/10 03:01:28;;;;;;;6.00;2.60;;;;;;;;;;5061542;28;20464;-70
2023/12/10 03:03:54;;;;;;;6.32;2.17;;;;;;;;;;5079344;28;20021;-71
2023/12/10 03:06:20;;;;;;;7.20;2.63;;;;;;;;;;5063016;28;20421;-71
2023/12/10 03:08:46;;;;;;;6.53;3.03;;;;;;;;;;5061063;28;20520;-71
2023/12/10 03:11:12;;;;;;;6.38;2.10;;;;;;;;;;5060695;28;20135;-71
2023/12/10 03:13:39;;;;;;;7.72;2.00;;;;;;;;;;5066538;28;20020;-71
2023/12/10 03:16:05;;;;;;;7.10;2.40;;;;;;;;;;5071091;28;20075;-71
2023/12/10 03:18:31;;;;;;;10.90;3.15;;;;;;;;;;5063162;28;20017;-70
2023/12/10 03:20:57;;;;;;;9.32;2.20;;;;;;;;;;5060085;28;20037;-71
2023/12/10 03:23:23;;;;;;;7.88;2.80;;;;;;;;;;5078476;28;20052;-71
2023/12/10 03:25:49;;;;;;;3.90;2.22;;;;;;;;;;5074226;28;20057;-70
2023/12/10 03:28:16;;;;;;;10.27;2.80;;;;;;;;;;5066831;28;20017;-70
2023/12/10 03:30:42;;;;;;;6.93;3.35;;;;;;;;;;5063730;28;20559;-71
2023/12/10 03:33:08;;;;;;;6.45;2.53;;;;;;;;;;5052001;28;20458;-71
2023/12/10 03:35:34;;;;;;;5.72;2.17;;;;;;;;;;5058453;28;20020;-70
2023/12/10 03:38:00;;;;;;;6.53;2.40;;;;;;;;;;5060525;28;20082;-70
2023/12/10 03:40:26;;;;;;;8.45;2.35;;;;;;;;;;5063194;28;20472;-71
2023/12/10 03:42:52;;;;;;;7.50;2.58;;;;;;;;;;5062656;28;20055;-70
2023/12/10 03:45:19;;;;;;;4.93;2.42;;;;;;;;;;5062500;28;20052;-71
2023/12/10 03:47:46;;;;;;;7.85;2.30;;;;;;;;;;5078671;28;20633;-70
2023/12/10 03:50:16;;;;;;;7.32;2.47;;;;;;;;;;5059643;28;20028;-71
2023/12/10 03:52:42;;;;;;;12.35;2.42;;;;;;;;;;5061780;28;20047;-71
2023/12/10 03:55:09;;;;;;;10.00;2.47;;;;;;;;;;5062937;28;20035;-71
2023/12/10 03:57:35;;;;;;;9.70;2.22;;;;;;;;;;5065436;28;20028;-71
2023/12/10 04:00:05;;;;;;;6.18;2.60;;;;;;;;;;5062797;28;20060;-70
2023/12/10 04:02:31;;;;;;;6.53;1.83;;;;;;;;;;5059519;28;20415;-71
2023/12/10 04:04:57;;;;;;;7.15;2.20;;;;;;;;;;5057857;28;20480;-71
2023/12/10 04:07:25;;;;;;;8.07;2.22;;;;;;;;;;5056265;28;20035;-71
2023/12/10 04:09:51;;;;;;;3.58;2.03;;;;;;;;;;5059278;28;20074;-70
2023/12/10 04:12:17;;;;;;;5.53;2.10;;;;;;;;;;5063792;28;20037;-71
2023/12/10 04:14:47;;;;;;;2.97;2.10;;;;;;;;;;5055669;28;20028;-72
2023/12/10 04:17:13;;;;;;;4.25;2.28;;;;;;;;;;5051361;28;20021;-69
2023/12/10 04:19:41;;;;;;;12.63;2.78;;;;;;;;;;5055544;28;20029;-70
2023/12/10 04:22:07;;;;;;;7.47;2.72;;;;;;;;;;5060221;28;20483;-71
2023/12/10 04:24:34;;;;;;;7.22;2.08;;;;;;;;;;5060071;28;20579;-71
2023/12/10 04:27:00;;;;;;;8.93;2.50;;;;;;;;;;5059427;28;20035;-71
2023/12/10 04:29:26;;;;;;;3.05;1.85;;;;;;;;;;5055068;28;20032;-71
2023/12/10 04:31:52;;;;;;;6.90;2.20;;;;;;;;;;5059874;28;20048;-71
2023/12/10 04:34:19;;;;;;;8.52;1.90;;;;;;;;;;5052277;28;20024;-71
2023/12/10 04:36:45;;;;;;;5.90;2.05;;;;;;;;;;5060938;28;20025;-71
2023/12/10 04:39:11;;;;;;;6.70;2.60;;;;;;;;;;5073634;28;20508;-71
2023/12/10 04:41:37;;;;;;;8.85;2.63;;;;;;;;;;5061056;28;20051;-71
2023/12/10 04:44:04;;;;;;;4.78;2.13;;;;;;;;;;5059107;28;20019;-70
2023/12/10 04:46:30;;;;;;;4.63;2.13;;;;;;;;;;5060751;28;20570;-71
2023/12/10 04:48:56;;;;;;;3.53;1.80;;;;;;;;;;5057135;28;20063;-71
2023/12/10 04:51:24;;;;;;;6.03;2.00;;;;;;;;;;5060643;28;20084;-71
2023/12/10 04:53:50;;;;;;;5.70;1.92;;;;;;;;;;5061382;28;20375;-70
2023/12/10 04:56:17;;;;;;;2.25;1.75;;;;;;;;;;5060289;28;20277;-71
2023/12/10 04:58:43;;;;;;;1.83;1.65;;;;;;;;;;5071559;28;20044;-71
2023/12/10 05:01:09;;;;;;;6.65;2.15;;;;;;;;;;5057552;28;20059;-71
2023/12/10 05:03:35;;;;;;;4.93;1.70;;;;;;;;;;5062086;28;20036;-71
2023/12/10 05:06:02;;;;;;;4.53;2.03;;;;;;;;;;5075445;28;20435;-71
2023/12/10 05:08:28;;;;;;;6.15;1.92;;;;;;;;;;5098031;28;20048;-71
2023/12/10 05:10:54;;;;;;;11.63;2.50;;;;;;;;;;5064023;28;20035;-71
2023/12/10 05:13:20;;;;;;;8.52;2.10;;;;;;;;;;5058210;28;20558;-71
2023/12/10 05:15:47;;;;;;;8.52;2.83;;;;;;;;;;5057928;28;20171;-71
2023/12/10 05:18:13;;;;;;;6.18;2.50;;;;;;;;;;5063159;28;20025;-71
2023/12/10 05:20:39;;;;;;;4.55;1.90;;;;;;;;;;5059993;28;20032;-71
2023/12/10 05:23:05;;;;;;;6.63;2.38;;;;;;;;;;5064382;28;20035;-71
2023/12/10 05:25:31;;;;;;;5.60;2.08;;;;;;;;;;5059905;28;20028;-71
2023/12/10 05:27:57;;;;;;;6.90;2.67;;;;;;;;;;5061743;28;20032;-71
2023/12/10 05:30:24;;;;;;;9.48;2.53;;;;;;;;;;5054332;28;20028;-71
2023/12/10 05:32:50;;;;;;;7.35;3.28;;;;;;;;;;5059838;28;20047;-71
2023/12/10 05:35:16;;;;;;;5.30;1.90;;;;;;;;;;5062018;28;20523;-71
2023/12/10 05:37:42;;;;;;;5.57;3.10;;;;;;;;;;5057464;28;20195;-71
2023/12/10 05:40:09;;;;;;;8.95;2.17;;;;;;;;;;5066062;28;20035;-70
2023/12/10 05:42:35;;;;;;;6.35;2.22;;;;;;;;;;5057295;28;20025;-70
2023/12/10 05:45:02;;;;;;;6.22;1.80;;;;;;;;;;5064536;28;20048;-70
2023/12/10 05:47:28;;;;;;;13.32;3.25;;;;;;;;;;5079796;28;20032;-71
2023/12/10 05:49:55;;;;;;;6.00;2.53;;;;;;;;;;5064997;28;20032;-70
2023/12/10 05:52:21;;;;;;;5.15;2.15;;;;;;;;;;5068091;28;20055;-71
2023/12/10 05:54:47;;;;;;;8.30;2.10;;;;;;;;;;5087714;28;20043;-71
2023/12/10 05:57:13;;;;;;;7.93;2.40;;;;;;;;;;5065499;28;20039;-70
2023/12/10 05:59:39;;;;;;;9.55;2.60;;;;;;;;;;5066049;28;20143;-70
2023/12/10 06:02:05;;;;;;;7.22;2.30;;;;;;;;;;5064639;28;20460;-71
2023/12/10 06:04:32;;;;;;;5.28;2.78;;;;;;;;;;5058665;28;20032;-71
2023/12/10 06:06:58;;;;;;;8.38;2.80;;;;;;;;;;5061244;28;20150;-71
2023/12/10 06:09:24;;;;;;;7.60;2.53;;;;;;;;;;5058255;28;20131;-71
2023/12/10 06:11:53;;;;;;;13.77;2.83;;;;;;;;;;5081467;28;20543;-71
2023/12/10 06:14:19;;;;;;;13.18;3.33;;;;;;;;;;5063968;28;20102;-71
2023/12/10 06:16:45;;;;;;;11.38;3.05;;;;;;;;;;5064785;28;20032;-71
2023/12/10 06:19:11;;;;;;;9.82;3.05;;;;;;;;;;5059874;28;20044;-71
2023/12/10 06:21:37;;;;;;;10.52;2.85;;;;;;;;;;5059547;28;20029;-71
2023/12/10 06:24:04;;;;;;;13.95;2.40;;;;;;;;;;5050599;28;20396;-71
2023/12/10 06:26:30;;;;;;;6.55;2.15;;;;;;;;;;5063701;28;20028;-71
2023/12/10 06:28:56;;;;;;;3.35;2.00;;;;;;;;;;5061339;28;20439;-70
2023/12/10 06:31:23;;;;;;;4.55;2.20;;;;;;;;;;5063974;28;20028;-70
2023/12/10 06:33:49;;;;;;;5.45;2.47;;;;;;;;;;5061000;28;20047;-71
2023/12/10 06:36:15;;;;;;;8.20;2.00;;;;;;;;;;5059767;28;20021;-71
2023/12/10 06:38:41;;;;;;;4.55;2.00;;;;;;;;;;5062808;28;20025;-71
2023/12/10 06:41:07;;;;;;;1.50;1.40;;;;;;;;;;5056839;28;20483;-71
2023/12/10 06:43:33;;;;;;;3.72;1.90;;;;;;;;;;5070577;28;20021;-71
2023/12/10 06:46:00;;;;;;;6.10;2.03;;;;;;;;;;5063241;28;20117;-71
2023/12/10 06:48:26;;;;;;;5.75;2.10;;;;;;;;;;5057174;28;20560;-71
2023/12/10 06:50:53;;;;;;;4.95;2.42;;;;;;;;;;5059188;28;20043;-71
2023/12/10 06:53:19;;;;;;;9.30;1.95;;;;;;;;;;5064813;28;20024;-72
2023/12/10 06:55:46;;;;;;;8.77;1.88;;;;;;;;;;5057848;28;20082;-72
2023/12/10 06:58:12;;;;;;;4.03;2.08;;;;;;;;;;5061430;28;20500;-72
2023/12/10 07:00:38;;;;;;;7.25;2.20;;;;;;;;;;5062667;28;20032;-72
2023/12/10 07:03:04;;;;;;;4.35;1.77;;;;;;;;;;5059871;28;20437;-72
2023/12/10 07:05:30;;;;;;;4.10;1.60;;;;;;;;;;5056118;28;20025;-70
2023/12/10 07:07:56;;;;;;;4.03;1.90;;;;;;;;;;5060544;28;20197;-71
2023/12/10 07:10:23;;;;;;;3.13;1.90;;;;;;;;;;5061195;28;20028;-71
2023/12/10 07:12:54;;;;;;;1.85;1.75;;;;;;;;;;5059462;28;20547;-70
2023/12/10 07:15:20;;;;;;;8.15;2.05;;;;;;;;;;5061979;28;20562;-71
2023/12/10 07:17:46;;;;;;;11.13;2.70;;;;;;;;;;5061346;28;20020;-71
2023/12/10 07:20:12;;;;;;;6.60;2.05;;;;;;;;;;5063321;28;20064;-70
2023/12/10 07:22:38;;;;;;;5.13;2.10;;;;;;;;;;5062454;28;20032;-71
2023/12/10 07:25:05;;;;;;;7.88;2.65;;;;;;;;;;5061087;28;20032;-70
2023/12/10 07:27:32;;;;;;;7.65;2.60;;;;;;;;;;5061593;28;21067;-70
2023/12/10 07:29:58;;;;;;;6.70;2.25;;;;;;;;;;5072610;28;20141;-71
2023/12/10 07:32:24;;;;;;;20.45;6.45;;;;;;;;;;5092648;28;20056;-70
2023/12/10 07:34:51;;;;;;;5.78;2.40;;;;;;;;;;5062226;28;20050;-72
2023/12/10 07:37:19;;;;;;;6.55;2.05;;;;;;;;;;5059121;28;20025;-70
2023/12/10 07:39:46;;;;;;;6.60;2.88;;;;;;;;;;5064101;28;20068;-70
2023/12/10 07:42:12;;;;;;;4.00;2.00;;;;;;;;;;5059683;28;20029;-71
2023/12/10 07:44:38;;;;;;;4.55;1.70;;;;;;;;;;5055795;28;20041;-71
2023/12/10 07:47:04;;;;;;;4.80;1.77;;;;;;;;;;5057255;28;20029;-72
2023/12/10 07:49:32;;;;;;;2.72;1.42;;;;;;;;;;5061424;28;20166;-72
2023/12/10 07:51:58;;;;;;;5.43;2.47;;;;;;;;;;5064175;28;20135;-72
2023/12/10 07:54:24;;;;;;;8.55;2.45;;;;;;;;;;5056163;28;20033;-71
2023/12/10 07:56:50;;;;;;;9.55;2.47;;;;;;;;;;5057121;28;20079;-70
2023/12/10 07:59:18;;;;;;;3.70;2.40;;;;;;;;;;5056622;28;20116;-71
2023/12/10 08:01:44;;;;;;;7.68;2.25;;;;;;;;;;5053823;28;20025;-71
2023/12/10 08:04:11;;;;;;;4.22;1.92;;;;;;;;;;5056216;28;20020;-70
2023/12/10 08:06:37;;;;;;;4.95;2.17;;;;;;;;;;5063752;28;20016;-71
2023/12/10 08:09:06;;;;;;;2.53;1.65;;;;;;;;;;5056528;28;20036;-70
2023/12/10 08:11:32;;;;;;;3.70;1.85;;;;;;;;;;5063228;28;20028;-70
2023/12/10 08:13:59;;;;;;;2.63;1.40;;;;;;;;;;5060068;28;20028;-69
2023/12/10 08:16:25;;;;;;;5.00;2.05;;;;;;;;;;5060639;28;20036;-71
2023/12/10 08:18:51;;;;;;;5.50;1.52;;;;;;;;;;5061607;28;20033;-70
2023/12/10 08:21:17;;;;;;;3.45;1.60;;;;;;;;;;5062260;28;20036;-70
2023/12/10 08:23:44;;;;;;;4.15;1.73;;;;;;;;;;5057622;28;20025;-69
2023/12/10 08:26:10;;;;;;;4.20;1.90;;;;;;;;;;5064027;28;20013;-70
2023/12/10 08:28:36;;;;;;;3.85;1.88;;;;;;;;;;5059334;28;20050;-71
2023/12/10 08:31:02;;;;;;;5.97;1.75;;;;;;;;;;5061060;28;20465;-70
2023/12/10 08:33:29;;;;;;;1.92;1.52;;;;;;;;;;5059623;28;20033;-70
2023/12/10 08:35:55;;;;;;;1.88;1.48;;;;;;;;;;5062952;28;20032;-70
2023/12/10 08:38:22;;;;;;;7.63;2.00;;;;;;;;;;5080150;28;20036;-70
2023/12/10 08:40:48;;;;;;;3.15;2.22;;;;;;;;;;5062919;28;20031;-71
2023/12/10 08:43:14;;;;;;;2.35;1.80;;;;;;;;;;5062987;28;20033;-72
2023/12/10 08:45:41;;;;;;;6.68;2.35;;;;;;;;;;5063414;28;20594;-71
2023/12/10 08:48:07;;;;;;;3.15;2.20;;;;;;;;;;5060380;28;20021;-70
2023/12/10 08:50:34;;;;;;;4.55;2.42;;;;;;;;;;5063372;28;20028;-71
2023/12/10 08:53:00;;;;;;;5.30;2.30;;;;;;;;;;5052592;28;20037;-71
2023/12/10 08:55:26;;;;;;;5.65;1.95;;;;;;;;;;5068576;28;20119;-70
2023/12/10 08:57:52;;;;;;;7.07;2.22;;;;;;;;;;5072384;28;20424;-71
2023/12/10 09:00:18;;;;;;;3.97;1.70;;;;;;;;;;5061245;28;20036;-71
2023/12/10 09:02:44;;;;;;;3.75;1.85;;;;;;;;;;5056865;28;20031;-71
2023/12/10 09:05:10;;;;;;;5.50;1.90;;;;;;;;;;5078789;28;20035;-71
2023/12/10 09:07:37;;;;;;;4.95;1.98;;;;;;;;;;5063070;28;20563;-71
2023/12/10 09:10:03;;;;;;;8.00;3.17;;;;;;;;;;5063629;28;20032;-71
2023/12/10 09:12:30;;;;;;;5.72;2.20;;;;;;;;;;5060529;28;20024;-71
2023/12/10 09:14:56;;;;;;;3.63;1.90;;;;;;;;;;5054799;28;20053;-71
2023/12/10 09:17:23;;;;;;;6.35;2.90;;;;;;;;;;5060098;28;20040;-71
2023/12/10 09:19:49;;;;;;;2.83;2.08;;;;;;;;;;5065208;28;20039;-72
2023/12/10 09:22:18;;;;;;;8.57;1.85;;;;;;;;;;5061145;28;20021;-71
2023/12/10 09:24:44;;;;;;;7.10;2.40;;;;;;;;;;5054840;28;20550;-71
2023/12/10 09:27:13;;;;;;;4.97;1.80;;;;;;;;;;5062456;28;20472;-71
2023/12/10 09:29:41;;;;;;;1.92;1.73;;;;;;;;;;5055079;28;20043;-71
2023/12/10 09:32:07;;;;;;;3.33;1.70;;;;;;;;;;5057034;28;20114;-71
2023/12/10 09:34:33;;;;;;;6.07;1.65;;;;;;;;;;5055804;28;20074;-70
2023/12/10 09:37:00;;;;;;;2.35;1.52;;;;;;;;;;5055425;28;20041;-71
2023/12/10 09:39:26;;;;;;;4.03;1.75;;;;;;;;;;5058872;28;20119;-71
2023/12/10 09:41:53;;;;;;;2.13;1.30;;;;;;;;;;5062591;28;20062;-71
2023/12/10 09:44:19;;;;;;;2.92;2.10;;;;;;;;;;5059762;28;20128;-71
2023/12/10 09:46:46;;;;;;;1.67;1.40;;;;;;;;;;5061356;28;20017;-71
2023/12/10 09:49:14;;;;;;;1.77;1.67;;;;;;;;;;5055925;28;20048;-71
2023/12/10 09:51:40;;;;;;;1.73;1.52;;;;;;;;;;5059498;28;20461;-71
2023/12/10 09:54:07;;;;;;;1.63;1.50;;;;;;;;;;5064655;28;20020;-71
2023/12/10 09:56:33;;;;;;;1.58;1.48;;;;;;;;;;5062528;28;20036;-71
2023/12/10 09:58:59;;;;;;;1.42;1.20;;;;;;;;;;5060412;28;20059;-71
2023/12/10 10:01:25;;;;;;;1.40;1.30;;;;;;;;;;5058043;28;20048;-72
2023/12/10 10:03:52;;;;;;;2.60;1.65;;;;;;;;;;5059179;28;20025;-71
2023/12/10 10:06:18;;;;;;;2.70;1.77;;;;;;;;;;5056268;28;20500;-71
2023/12/10 10:08:44;;;;;;;3.60;1.48;;;;;;;;;;5060967;28;21064;-71
2023/12/10 10:11:10;;;;;;;1.55;1.45;;;;;;;;;;5058529;28;20107;-71
2023/12/10 10:13:36;;;;;;;2.97;1.70;;;;;;;;;;5060379;28;20477;-71
2023/12/10 10:16:10;;;;;;;2.92;1.60;;;;;;;;;;5061825;28;20058;-71
2023/12/10 10:18:39;;;;;;;2.33;1.77;;;;;;;;;;5059789;28;20429;-71
2023/12/10 10:21:06;;;;;;;2.63;1.65;;;;;;;;;;5062947;28;20021;-71
2023/12/10 10:23:32;;;;;;;2.70;1.70;;;;;;;;;;5064374;28;20118;-71
2023/12/10 10:25:58;;;;;;;8.30;2.13;;;;;;;;;;5063454;28;20123;-72
2023/12/10 10:28:25;;;;;;;2.05;1.70;;;;;;;;;;5059076;28;20044;-71
2023/12/10 10:30:51;;;;;;;6.00;1.80;;;;;;;;;;5063023;28;20056;-71
2023/12/10 10:33:20;;;;;;;5.10;2.05;;;;;;;;;;5060076;28;20146;-71
2023/12/10 10:35:47;;;;;;;5.47;1.80;;;;;;;;;;5063810;28;20020;-71
2023/12/10 10:38:16;;;;;;;7.93;2.10;;;;;;;;;;5063114;28;20400;-72
2023/12/10 10:40:42;;;;;;;4.88;1.80;;;;;;;;;;5064762;28;20395;-71
2023/12/10 10:43:08;;;;;;;3.67;1.70;;;;;;;;;;5066008;28;20067;-71
2023/12/10 10:45:35;;;;;;;4.15;2.25;;;;;;;;;;5068355;28;20373;-72
2023/12/10 10:48:01;;;;;;;6.53;2.00;;;;;;;;;;5061991;28;20112;-71
2023/12/10 10:50:27;;;;;;;5.57;2.20;;;;;;;;;;5066296;28;20029;-71
2023/12/10 10:52:54;;;;;;;9.98;2.70;;;;;;;;;;5054053;28;20033;-72
2023/12/10 10:55:21;;;;;;;4.22;1.80;;;;;;;;;;5061738;28;20081;-72
2023/12/10 10:57:48;;;;;;;7.00;2.80;;;;;;;;;;5059858;28;20021;-71
2023/12/10 11:00:20;;;;;;;9.68;3.17;;;;;;;;;;5052878;28;20358;-72
2023/12/10 11:02:49;;;;;;;8.20;2.60;;;;;;;;;;5047507;28;20025;-72
2023/12/10 11:05:21;;;;;;;7.78;2.50;;;;;;;;;;5052388;28;20102;-72
2023/12/10 11:07:49;;;;;;;11.27;3.35;;;;;;;;;;5059643;28;20714;-72
2023/12/10 11:10:15;;;;;;;8.32;3.13;;;;;;;;;;5046032;28;20089;-72
2023/12/10 11:12:42;;;;;;;8.63;2.92;;;;;;;;;;5060200;28;20040;-72
2023/12/10 11:15:11;;;;;;;5.80;2.20;;;;;;;;;;5051088;28;20090;-71
2023/12/10 11:17:49;;;;;;;11.63;2.63;;;;;;;;;;5059737;28;20953;-72
2023/12/10 11:20:34;;;;;;;14.15;2.75;;;;;;;;;;5061610;28;20060;-72
2023/12/10 11:23:04;;;;;;;8.18;3.20;;;;;;;;;;5057779;28;20021;-72
2023/12/10 11:25:31;;;;;;;4.82;2.67;;;;;;;;;;5059500;28;20033;-71
2023/12/10 11:27:57;;;;;;;9.10;2.53;;;;;;;;;;5061024;28;20032;-72
2023/12/10 11:30:24;;;;;;;9.98;2.97;;;;;;;;;;5064204;28;20496;-71
2023/12/10 11:32:53;;;;;;;11.38;3.03;;;;;;;;;;5062735;28;21008;-72
2023/12/10 11:35:19;;;;;;;7.75;2.85;;;;;;;;;;5061813;28;20025;-72
2023/12/10 11:37:46;;;;;;;9.65;3.30;;;;;;;;;;5077509;28;20028;-72
2023/12/10 11:40:12;;;;;;;9.07;2.85;;;;;;;;;;5058940;28;20029;-71
2023/12/10 11:42:38;;;;;;;11.15;4.25;;;;;;;;;;5055635;28;20035;-73
2023/12/10 11:45:05;;;;;;;13.40;3.42;;;;;;;;;;5057218;28;20446;-72
2023/12/10 11:47:31;;;;;;;11.68;3.15;;;;;;;;;;5061364;28;20587;-72
2023/12/10 11:49:57;;;;;;;11.05;2.88;;;;;;;;;;5062284;28;20032;-72
2023/12/10 11:52:24;;;;;;;7.07;3.05;;;;;;;;;;5058699;28;20029;-72
2023/12/10 11:54:51;;;;;;;10.48;2.53;;;;;;;;;;5060084;28;20098;-72
2023/12/10 11:57:17;;;;;;;11.60;3.20;;;;;;;;;;5058967;28;20519;-72
2023/12/10 11:59:48;;;;;;;12.93;3.05;;;;;;;;;;5063954;28;20078;-72
2023/12/10 12:02:15;;;;;;;6.63;3.05;;;;;;;;;;5061423;28;20557;-72
2023/12/10 12:04:42;;;;;;;7.85;3.67;;;;;;;;;;5063687;28;20034;-72
2023/12/10 12:07:24;;;;;;;15.55;4.07;;;;;;;;;;5056201;28;20052;-73
2023/12/10 12:09:52;;;;;;;16.20;3.97;;;;;;;;;;5065764;28;20085;-72
2023/12/10 12:12:20;;;;;;;9.88;3.42;;;;;;;;;;5057516;28;20196;-73
2023/12/10 12:14:47;;;;;;;10.55;3.70;;;;;;;;;;5052951;28;20473;-73
2023/12/10 12:17:15;;;;;;;13.25;3.33;;;;;;;;;;5062298;28;20574;-73
2023/12/10 12:19:42;;;;;;;12.27;3.50;;;;;;;;;;5062098;28;20028;-72
2023/12/10 12:22:09;;;;;;;8.85;3.45;;;;;;;;;;5057825;28;20070;-73
2023/12/10 12:24:36;;;;;;;11.18;2.90;;;;;;;;;;5054621;28;20035;-73
2023/12/10 12:27:02;;;;;;;13.77;4.00;;;;;;;;;;5063024;28;20043;-73
2023/12/10 12:29:28;;;;;;;18.85;4.53;;;;;;;;;;5055686;28;20028;-73
2023/12/10 12:31:55;;;;;;;15.52;4.28;;;;;;;;;;5065304;28;20035;-74
2023/12/10 12:34:21;;;;;;;11.18;3.45;;;;;;;;;;5056493;28;20103;-72
2023/12/10 12:36:47;;;;;;;14.32;3.33;;;;;;;;;;5058978;28;20126;-72
2023/12/10 12:39:13;;;;;;;15.45;4.43;;;;;;;;;;5058269;28;20052;-71
2023/12/10 12:41:40;;;;;;;11.02;3.28;;;;;;;;;;5062820;28;20028;-72
2023/12/10 12:44:06;;;;;;;11.13;3.30;;;;;;;;;;5060783;28;20021;-72
2023/12/10 12:46:32;;;;;;;17.58;3.78;;;;;;;;;;5056646;28;20029;-72
2023/12/10 12:48:59;;;;;;;11.25;3.42;;;;;;;;;;5054210;28;20036;-72
2023/12/10 12:51:25;;;;;;;10.75;3.47;;;;;;;;;;5063639;28;20033;-72
2023/12/10 12:53:51;;;;;;;15.40;3.75;;;;;;;;;;5061538;28;20059;-72
2023/12/10 12:56:19;;;;;;;15.60;3.88;;;;;;;;;;5053779;28;20484;-72
2023/12/10 12:58:45;;;;;;;13.85;4.30;;;;;;;;;;5053370;28;20047;-72
2023/12/10 13:01:11;;;;;;;9.05;2.92;;;;;;;;;;5060430;28;20362;-71
2023/12/10 13:03:37;;;;;;;8.88;3.55;;;;;;;;;;5062152;28;20481;-72
2023/12/10 13:06:04;;;;;;;12.73;3.75;;;;;;;;;;5061206;28;20029;-72
2023/12/10 13:08:31;;;;;;;10.55;3.75;;;;;;;;;;5055110;28;20021;-72
2023/12/10 13:10:57;;;;;;;9.88;3.60;;;;;;;;;;5065105;28;20029;-72
2023/12/10 13:13:24;;;;;;;9.35;3.35;;;;;;;;;;5065831;28;20111;-72
2023/12/10 13:15:50;;;;;;;12.85;3.00;;;;;;;;;;5062092;28;20033;-72
2023/12/10 13:18:17;;;;;;;12.85;3.38;;;;;;;;;;5060712;28;20023;-72
2023/12/10 13:20:43;;;;;;;9.13;3.50;;;;;;;;;;5061078;28;20416;-72
2023/12/10 13:23:09;;;;;;;6.75;2.85;;;;;;;;;;5059435;28;20059;-72
2023/12/10 13:25:36;;;;;;;12.70;3.42;;;;;;;;;;5064974;28;20017;-72
2023/12/10 13:28:02;;;;;;;16.58;3.00;;;;;;;;;;5065154;28;20115;-72
2023/12/10 13:30:28;;;;;;;8.88;2.63;;;;;;;;;;5065472;28;20029;-73
2023/12/10 13:32:55;;;;;;;15.10;3.55;;;;;;;;;;5062733;28;20036;-73
2023/12/10 13:35:21;;;;;;;9.35;3.40;;;;;;;;;;5066844;28;20506;-72
2023/12/10 13:37:47;;;;;;;8.10;3.40;;;;;;;;;;5063575;28;20028;-72
2023/12/10 13:40:15;;;;;;;13.68;3.92;;;;;;;;;;5067701;28;20131;-72
2023/12/10 13:42:42;;;;;;;11.52;3.40;;;;;;;;;;5071240;28;20598;-71
2023/12/10 13:45:09;;;;;;;11.88;3.35;;;;;;;;;;5066579;28;20525;-72
2023/12/10 13:47:35;;;;;;;11.00;2.90;;;;;;;;;;5062114;28;20028;-72
2023/12/10 13:50:02;;;;;;;12.52;3.88;;;;;;;;;;5064499;28;20478;-72
2023/12/10 13:52:29;;;;;;;14.57;4.18;;;;;;;;;;5064989;28;20021;-74
2023/12/10 13:54:56;;;;;;;12.05;3.10;;;;;;;;;;5058650;28;20036;-72
2023/12/10 13:57:24;;;;;;;18.20;4.40;;;;;;;;;;5062296;28;20139;-72
2023/12/10 13:59:50;;;;;;;13.60;3.80;;;;;;;;;;5060210;28;20029;-72
2023/12/10 14:02:16;;;;;;;12.10;3.60;;;;;;;;;;5062404;28;20086;-72
2023/12/10 14:04:43;;;;;;;8.50;3.20;;;;;;;;;;5065813;28;20392;-72
2023/12/10 14:07:12;;;;;;;14.18;3.85;;;;;;;;;;5063204;28;20383;-72
2023/12/10 14:09:38;;;;;;;20.65;6.25;;;;;;;;;;5068190;28;20078;-72
2023/12/10 14:12:06;;;;;;;8.73;4.00;;;;;;;;;;5060660;28;20048;-73
2023/12/10 14:14:32;;;;;;;15.20;4.28;;;;;;;;;;5080521;28;20040;-72
2023/12/10 14:16:58;;;;;;;11.25;5.15;;;;;;;;;;5060129;28;20384;-72
2023/12/10 14:19:45;;;;;;;11.38;3.38;;;;;;;;;;5067875;28;20028;-72
2023/12/10 14:22:11;;;;;;;16.75;3.80;;;;;;;;;;5062742;28;20008;-72
2023/12/10 14:24:37;;;;;;;10.60;2.92;;;;;;;;;;5055811;28;20130;-72
2023/12/10 14:27:04;;;;;;;12.25;3.13;;;;;;;;;;5066813;28;20346;-72
2023/12/10 14:29:30;;;;;;;14.70;4.22;;;;;;;;;;5053996;28;20017;-72
2023/12/10 14:31:56;;;;;;;14.15;3.80;;;;;;;;;;5066429;28;20486;-71
2023/12/10 14:34:22;;;;;;;8.20;3.13;;;;;;;;;;5062960;28;20027;-72
2023/12/10 14:36:49;;;;;;;7.50;4.15;;;;;;;;;;5060937;28;20067;-72